sensor_id;sensor_type;location;lat;lon;timestamp;pressure;altitude;pressure_sealevel;temperature;humidity
80323;BME280;69636;52.372;13.610;2023-08-31T00:02:03;100316.28;;;14.33;99.63
80323;BME280;69636;52.372;13.610;2023-08-31T00:04:31;100319.47;;;14.21;99.32
80323;BME280;69636;52.372;13.610;2023-08-31T00:06:58;100315.78;;;14.08;100.00
80323;BME280;69636;52.372;13.610;2023-08-31T00:09:26;100319.66;;;14.05;100.00
80323;BME280;69636;52.372;13.610;2023-08-31T00:11:54;100325.13;;;13.97;100.00
80323;BME280;69636;52.372;13.610;2023-08-31T00:14:22;100322.44;;;13.97;100.00
80323;BME280;69636;52.372;13.610;2023-08-31T00:16:49;100316.56;;;14.02;100.00
80323;BME280;69636;52.372;13.610;2023-08-31T00:19:16;100318.88;;;13.90;100.00
80323;BME280;69636;52.372;13.610;2023-08-31T00:21:44;100314.44;;;13.82;100.00
80323;BME280;69636;52.372;13.610;2023-08-31T00:24:11;100316.94;;;13.84;100.00
80323;BME280;69636;52.372;13.610;2023-08-31T00:26:38;100307.91;;;13.85;100.00
80323;BME280;69636;52.372;13.610;2023-08-31T00:29:08;100307.19;;;13.91;100.00
80323;BME280;69636;52.372;13.610;2023-08-31T00:31:35;100298.53;;;13.89;100.00
80323;BME280;69636;52.372;13.610;2023-08-31T00:34:03;100297.34;;;13.91;100.00
80323;BME280;69636;52.372;13.610;2023-08-31T00:36:31;100302.66;;;13.91;100.00
80323;BME280;69636;52.372;13.610;2023-08-31T00:39:00;100313.81;;;13.95;100.00
80323;BME280;69636;52.372;13.610;2023-08-31T00:41:29;100301.38;;;14.02;100.00
80323;BME280;69636;52.372;13.610;2023-08-31T00:43:56;100299.25;;;13.98;100.00
80323;BME280;69636;52.372;13.610;2023-08-31T00:46:25;100291.81;;;13.93;100.00
80323;BME280;69636;52.372;13.610;2023-08-31T00:48:53;100292.63;;;13.93;100.00
80323;BME280;69636;52.372;13.610;2023-08-31T00:51:20;100295.94;;;13.96;100.00
80323;BME280;69636;52.372;13.610;2023-08-31T00:53:48;100294.38;;;13.86;100.00
80323;BME280;69636;52.372;13.610;2023-08-31T00:56:16;100291.53;;;13.88;100.00
80323;BME280;69636;52.372;13.610;2023-08-31T00:58:44;100288.69;;;13.89;100.00
80323;BME280;69636;52.372;13.610;2023-08-31T01:01:15;100298.53;;;13.89;100.00
80323;BME280;69636;52.372;13.610;2023-08-31T01:03:54;100301.38;;;13.87;100.00
80323;BME280;69636;52.372;13.610;2023-08-31T01:06:32;100298.97;;;13.78;100.00
80323;BME280;69636;52.372;13.610;2023-08-31T01:09:07;100303.25;;;13.72;100.00
80323;BME280;69636;52.372;13.610;2023-08-31T01:11:48;100300.03;;;13.77;100.00
80323;BME280;69636;52.372;13.610;2023-08-31T01:14:18;100305.53;;;13.75;100.00
80323;BME280;69636;52.372;13.610;2023-08-31T01:16:48;100309.78;;;13.70;100.00
80323;BME280;69636;52.372;13.610;2023-08-31T01:19:28;100308.38;;;13.59;100.00
80323;BME280;69636;52.372;13.610;2023-08-31T01:22:03;100309.56;;;13.56;100.00
80323;BME280;69636;52.372;13.610;2023-08-31T01:24:32;100312.25;;;13.56;100.00
80323;BME280;69636;52.372;13.610;2023-08-31T01:26:59;100316.91;;;13.54;100.00
80323;BME280;69636;52.372;13.610;2023-08-31T01:29:29;100314.91;;;13.56;100.00
80323;BME280;69636;52.372;13.610;2023-08-31T01:31:57;100314.06;;;13.56;100.00
80323;BME280;69636;52.372;13.610;2023-08-31T01:34:24;100317.84;;;13.62;100.00
80323;BME280;69636;52.372;13.610;2023-08-31T01:36:55;100319.16;;;13.66;100.00
80323;BME280;69636;52.372;13.610;2023-08-31T01:39:27;100319.97;;;13.66;100.00
80323;BME280;69636;52.372;13.610;2023-08-31T01:42:00;100328.63;;;13.68;100.00
80323;BME280;69636;52.372;13.610;2023-08-31T01:44:32;100324.47;;;13.66;100.00
80323;BME280;69636;52.372;13.610;2023-08-31T01:47:03;100323.09;;;13.70;100.00
80323;BME280;69636;52.372;13.610;2023-08-31T01:49:36;100322.63;;;13.81;100.00
80323;BME280;69636;52.372;13.610;2023-08-31T01:52:03;100327.97;;;13.81;100.00
80323;BME280;69636;52.372;13.610;2023-08-31T01:54:31;100331.81;;;13.78;100.00
80323;BME280;69636;52.372;13.610;2023-08-31T01:56:59;100341.66;;;13.78;100.00
80323;BME280;69636;52.372;13.610;2023-08-31T01:59:27;100342.72;;;13.77;100.00
80323;BME280;69636;52.372;13.610;2023-08-31T02:01:54;100335.31;;;13.79;100.00
80323;BME280;69636;52.372;13.610;2023-08-31T02:04:21;100331.47;;;13.81;100.00
80323;BME280;69636;52.372;13.610;2023-08-31T02:06:49;100340.47;;;13.80;100.00
80323;BME280;69636;52.372;13.610;2023-08-31T02:09:16;100349.31;;;13.81;100.00
80323;BME280;69636;52.372;13.610;2023-08-31T02:11:43;100360.16;;;13.79;100.00
80323;BME280;69636;52.372;13.610;2023-08-31T02:14:14;100363.28;;;13.83;100.00
80323;BME280;69636;52.372;13.610;2023-08-31T02:16:41;100360.63;;;13.83;100.00
80323;BME280;69636;52.372;13.610;2023-08-31T02:19:08;100356.75;;;13.85;100.00
80323;BME280;69636;52.372;13.610;2023-08-31T02:21:36;100357.69;;;13.92;100.00
80323;BME280;69636;52.372;13.610;2023-08-31T02:24:04;100356.88;;;13.92;100.00
80323;BME280;69636;52.372;13.610;2023-08-31T02:26:31;100354.56;;;13.89;100.00
80323;BME280;69636;52.372;13.610;2023-08-31T02:28:58;100350.97;;;13.82;100.00
80323;BME280;69636;52.372;13.610;2023-08-31T02:31:27;100363.47;;;13.81;100.00
80323;BME280;69636;52.372;13.610;2023-08-31T02:33:54;100364.06;;;13.77;100.00
80323;BME280;69636;52.372;13.610;2023-08-31T02:36:22;100372.59;;;13.72;100.00
80323;BME280;69636;52.372;13.610;2023-08-31T02:38:49;100397.16;;;13.68;100.00
80323;BME280;69636;52.372;13.610;2023-08-31T02:41:16;100392.81;;;13.67;100.00
80323;BME280;69636;52.372;13.610;2023-08-31T02:43:44;100391.09;;;13.74;100.00
80323;BME280;69636;52.372;13.610;2023-08-31T02:46:11;100400.81;;;13.67;100.00
80323;BME280;69636;52.372;13.610;2023-08-31T02:48:39;100392.19;;;13.65;100.00
80323;BME280;69636;52.372;13.610;2023-08-31T02:51:07;100385.66;;;13.67;100.00
80323;BME280;69636;52.372;13.610;2023-08-31T02:53:34;100374.16;;;13.67;100.00
80323;BME280;69636;52.372;13.610;2023-08-31T02:56:02;100381.41;;;13.58;100.00
80323;BME280;69636;52.372;13.610;2023-08-31T02:58:29;100391.03;;;13.44;100.00
80323;BME280;69636;52.372;13.610;2023-08-31T03:01:06;100380.84;;;13.48;100.00
80323;BME280;69636;52.372;13.610;2023-08-31T03:03:33;100385.34;;;13.47;100.00
80323;BME280;69636;52.372;13.610;2023-08-31T03:06:02;100391.03;;;13.44;100.00
80323;BME280;69636;52.372;13.610;2023-08-31T03:08:29;100395.91;;;13.41;100.00
80323;BME280;69636;52.372;13.610;2023-08-31T03:10:57;100398.81;;;13.31;100.00
80323;BME280;69636;52.372;13.610;2023-08-31T03:13:24;100411.56;;;13.21;100.00
80323;BME280;69636;52.372;13.610;2023-08-31T03:15:51;100406.59;;;13.18;100.00
80323;BME280;69636;52.372;13.610;2023-08-31T03:18:19;100403.28;;;13.16;100.00
80323;BME280;69636;52.372;13.610;2023-08-31T03:20:46;100406.78;;;13.16;100.00
80323;BME280;69636;52.372;13.610;2023-08-31T03:23:15;100409.44;;;13.16;100.00
80323;BME280;69636;52.372;13.610;2023-08-31T03:25:42;100415.91;;;13.14;100.00
80323;BME280;69636;52.372;13.610;2023-08-31T03:28:10;100415.78;;;13.07;100.00
80323;BME280;69636;52.372;13.610;2023-08-31T03:30:37;100415.97;;;13.06;100.00
80323;BME280;69636;52.372;13.610;2023-08-31T03:33:05;100413.22;;;12.99;100.00
80323;BME280;69636;52.372;13.610;2023-08-31T03:35:32;100409.34;;;13.02;100.00
80323;BME280;69636;52.372;13.610;2023-08-31T03:38:00;100394.34;;;13.01;100.00
80323;BME280;69636;52.372;13.610;2023-08-31T03:40:28;100400.06;;;12.98;100.00
80323;BME280;69636;52.372;13.610;2023-08-31T03:42:55;100409.41;;;12.94;100.00
80323;BME280;69636;52.372;13.610;2023-08-31T03:45:23;100414.09;;;12.91;100.00
80323;BME280;69636;52.372;13.610;2023-08-31T03:47:50;100419.94;;;12.87;100.00
80323;BME280;69636;52.372;13.610;2023-08-31T03:50:18;100420.75;;;12.87;100.00
80323;BME280;69636;52.372;13.610;2023-08-31T03:52:45;100415.09;;;12.90;100.00
80323;BME280;69636;52.372;13.610;2023-08-31T03:55:12;100418.41;;;12.93;100.00
80323;BME280;69636;52.372;13.610;2023-08-31T03:57:41;100420.91;;;12.94;100.00
80323;BME280;69636;52.372;13.610;2023-08-31T04:00:09;100428.06;;;12.94;100.00
80323;BME280;69636;52.372;13.610;2023-08-31T04:02:37;100432.66;;;13.00;100.00
80323;BME280;69636;52.372;13.610;2023-08-31T04:05:05;100431.31;;;13.04;100.00
80323;BME280;69636;52.372;13.610;2023-08-31T04:07:34;100428.63;;;13.04;100.00
80323;BME280;69636;52.372;13.610;2023-08-31T04:10:01;100436.63;;;13.04;100.00
80323;BME280;69636;52.372;13.610;2023-08-31T04:12:28;100431.47;;;13.02;100.00
80323;BME280;69636;52.372;13.610;2023-08-31T04:14:57;100431.97;;;13.06;100.00
80323;BME280;69636;52.372;13.610;2023-08-31T04:17:24;100434.31;;;13.01;100.00
80323;BME280;69636;52.372;13.610;2023-08-31T04:19:52;100444.97;;;13.01;100.00
80323;BME280;69636;52.372;13.610;2023-08-31T04:22:19;100446.19;;;12.98;100.00
80323;BME280;69636;52.372;13.610;2023-08-31T04:24:46;100454.81;;;13.00;100.00
80323;BME280;69636;52.372;13.610;2023-08-31T04:27:14;100451.31;;;13.00;100.00
80323;BME280;69636;52.372;13.610;2023-08-31T04:29:41;100447.63;;;13.01;100.00
80323;BME280;69636;52.372;13.610;2023-08-31T04:32:09;100456.00;;;12.98;100.00
80323;BME280;69636;52.372;13.610;2023-08-31T04:34:37;100466.50;;;12.99;100.00
80323;BME280;69636;52.372;13.610;2023-08-31T04:37:04;100459.31;;;13.00;100.00
80323;BME280;69636;52.372;13.610;2023-08-31T04:39:31;100464.19;;;12.96;100.00
80323;BME280;69636;52.372;13.610;2023-08-31T04:41:58;100468.25;;;13.07;100.00
80323;BME280;69636;52.372;13.610;2023-08-31T04:44:27;100464.09;;;13.04;100.00
80323;BME280;69636;52.372;13.610;2023-08-31T04:46:54;100460.63;;;13.04;100.00
80323;BME280;69636;52.372;13.610;2023-08-31T04:49:23;100457.72;;;13.13;100.00
80323;BME280;69636;52.372;13.610;2023-08-31T04:51:50;100455.25;;;13.12;100.00
80323;BME280;69636;52.372;13.610;2023-08-31T04:54:18;100452.94;;;13.09;100.00
80323;BME280;69636;52.372;13.610;2023-08-31T04:56:45;100457.25;;;13.10;100.00
80323;BME280;69636;52.372;13.610;2023-08-31T04:59:12;100469.91;;;13.08;100.00
80323;BME280;69636;52.372;13.610;2023-08-31T05:01:39;100472.88;;;13.13;100.00
80323;BME280;69636;52.372;13.610;2023-08-31T05:04:07;100473.91;;;13.12;100.00
80323;BME280;69636;52.372;13.610;2023-08-31T05:06:36;100474.56;;;13.14;100.00
80323;BME280;69636;52.372;13.610;2023-08-31T05:09:03;100473.88;;;13.20;100.00
80323;BME280;69636;52.372;13.610;2023-08-31T05:11:30;100482.81;;;13.27;100.00
80323;BME280;69636;52.372;13.610;2023-08-31T05:13:58;100481.81;;;13.28;100.00
80323;BME280;69636;52.372;13.610;2023-08-31T05:16:25;100482.34;;;13.46;100.00
80323;BME280;69636;52.372;13.610;2023-08-31T05:18:52;100487.88;;;13.45;100.00
80323;BME280;69636;52.372;13.610;2023-08-31T05:21:20;100496.41;;;13.40;100.00
80323;BME280;69636;52.372;13.610;2023-08-31T05:23:48;100495.38;;;13.41;100.00
80323;BME280;69636;52.372;13.610;2023-08-31T05:26:15;100489.06;;;13.42;100.00
80323;BME280;69636;52.372;13.610;2023-08-31T05:28:43;100495.03;;;13.44;100.00
80323;BME280;69636;52.372;13.610;2023-08-31T05:31:10;100501.84;;;13.47;100.00
80323;BME280;69636;52.372;13.610;2023-08-31T05:33:37;100503.03;;;13.44;100.00
80323;BME280;69636;52.372;13.610;2023-08-31T05:36:05;100500.19;;;13.46;100.00
80323;BME280;69636;52.372;13.610;2023-08-31T05:38:32;100493.19;;;13.45;100.00
80323;BME280;69636;52.372;13.610;2023-08-31T05:41:05;100506.06;;;13.41;100.00
80323;BME280;69636;52.372;13.610;2023-08-31T05:43:33;100503.69;;;13.46;100.00
80323;BME280;69636;52.372;13.610;2023-08-31T05:46:00;100508.50;;;13.51;100.00
80323;BME280;69636;52.372;13.610;2023-08-31T05:48:28;100511.34;;;13.49;100.00
80323;BME280;69636;52.372;13.610;2023-08-31T05:50:55;100512.34;;;13.48;100.00
80323;BME280;69636;52.372;13.610;2023-08-31T05:53:22;100518.84;;;13.46;100.00
80323;BME280;69636;52.372;13.610;2023-08-31T05:55:50;100525.03;;;13.46;100.00
80323;BME280;69636;52.372;13.610;2023-08-31T05:58:18;100528.53;;;13.47;100.00
80323;BME280;69636;52.372;13.610;2023-08-31T06:00:45;100533.03;;;13.46;100.00
80323;BME280;69636;52.372;13.610;2023-08-31T06:03:13;100530.28;;;13.54;100.00
80323;BME280;69636;52.372;13.610;2023-08-31T06:05:41;100526.59;;;13.55;100.00
80323;BME280;69636;52.372;13.610;2023-08-31T06:08:08;100526.38;;;13.65;100.00
80323;BME280;69636;52.372;13.610;2023-08-31T06:10:35;100531.72;;;13.65;100.00
80323;BME280;69636;52.372;13.610;2023-08-31T06:13:03;100530.41;;;13.61;100.00
80323;BME280;69636;52.372;13.610;2023-08-31T06:15:32;100535.09;;;13.59;100.00
80323;BME280;69636;52.372;13.610;2023-08-31T06:17:59;100538.69;;;13.66;100.00
80323;BME280;69636;52.372;13.610;2023-08-31T06:20:27;100541.53;;;13.65;100.00
80323;BME280;69636;52.372;13.610;2023-08-31T06:22:54;100543.69;;;13.69;100.00
80323;BME280;69636;52.372;13.610;2023-08-31T06:25:21;100542.97;;;13.75;100.00
80323;BME280;69636;52.372;13.610;2023-08-31T06:27:49;100546.75;;;13.81;100.00
80323;BME280;69636;52.372;13.610;2023-08-31T06:30:17;100548.88;;;13.85;100.00
80323;BME280;69636;52.372;13.610;2023-08-31T06:32:47;100546.56;;;13.82;100.00
80323;BME280;69636;52.372;13.610;2023-08-31T06:35:14;100549.88;;;13.84;100.00
80323;BME280;69636;52.372;13.610;2023-08-31T06:37:42;100548.03;;;13.85;100.00
80323;BME280;69636;52.372;13.610;2023-08-31T06:40:10;100550.72;;;13.85;100.00
80323;BME280;69636;52.372;13.610;2023-08-31T06:42:38;100551.72;;;13.84;100.00
80323;BME280;69636;52.372;13.610;2023-08-31T06:45:06;100555.34;;;13.91;100.00
80323;BME280;69636;52.372;13.610;2023-08-31T06:47:33;100550.59;;;14.01;100.00
80323;BME280;69636;52.372;13.610;2023-08-31T06:50:02;100557.38;;;14.04;100.00
80323;BME280;69636;52.372;13.610;2023-08-31T06:52:30;100559.44;;;14.16;99.27
80323;BME280;69636;52.372;13.610;2023-08-31T06:54:59;100555.78;;;14.17;98.57
80323;BME280;69636;52.372;13.610;2023-08-31T06:57:27;100558.72;;;14.22;98.74
80323;BME280;69636;52.372;13.610;2023-08-31T06:59:54;100570.78;;;14.33;98.33
80323;BME280;69636;52.372;13.610;2023-08-31T07:02:21;100565.63;;;14.32;97.97
80323;BME280;69636;52.372;13.610;2023-08-31T07:04:49;100570.97;;;14.32;98.04
80323;BME280;69636;52.372;13.610;2023-08-31T07:07:18;100571.38;;;14.29;98.19
80323;BME280;69636;52.372;13.610;2023-08-31T07:09:46;100584.78;;;14.20;99.87
80323;BME280;69636;52.372;13.610;2023-08-31T07:12:14;100583.47;;;14.16;100.00
80323;BME280;69636;52.372;13.610;2023-08-31T07:14:42;100581.06;;;14.07;100.00
80323;BME280;69636;52.372;13.610;2023-08-31T07:17:09;100582.84;;;13.91;100.00
80323;BME280;69636;52.372;13.610;2023-08-31T07:19:37;100582.50;;;13.95;100.00
80323;BME280;69636;52.372;13.610;2023-08-31T07:22:04;100592.41;;;13.86;100.00
80323;BME280;69636;52.372;13.610;2023-08-31T07:24:33;100592.28;;;13.79;100.00
80323;BME280;69636;52.372;13.610;2023-08-31T07:27:02;100598.44;;;13.80;100.00
80323;BME280;69636;52.372;13.610;2023-08-31T07:29:29;100598.34;;;13.73;100.00
80323;BME280;69636;52.372;13.610;2023-08-31T07:31:56;100601.00;;;13.73;100.00
80323;BME280;69636;52.372;13.610;2023-08-31T07:34:24;100601.91;;;13.66;100.00
80323;BME280;69636;52.372;13.610;2023-08-31T07:36:51;100606.41;;;13.65;100.00
80323;BME280;69636;52.372;13.610;2023-08-31T07:39:19;100603.56;;;13.67;100.00
80323;BME280;69636;52.372;13.610;2023-08-31T07:41:47;100607.53;;;13.71;100.00
80323;BME280;69636;52.372;13.610;2023-08-31T07:44:17;100607.53;;;13.71;100.00
80323;BME280;69636;52.372;13.610;2023-08-31T07:46:44;100613.78;;;13.78;100.00
80323;BME280;69636;52.372;13.610;2023-08-31T07:49:12;100612.75;;;13.87;100.00
80323;BME280;69636;52.372;13.610;2023-08-31T07:51:39;100621.22;;;13.90;100.00
80323;BME280;69636;52.372;13.610;2023-08-31T07:54:06;100621.44;;;14.04;100.00
80323;BME280;69636;52.372;13.610;2023-08-31T07:56:34;100625.38;;;14.16;100.00
80323;BME280;69636;52.372;13.610;2023-08-31T07:59:03;100624.78;;;14.29;100.00
80323;BME280;69636;52.372;13.610;2023-08-31T08:01:30;100632.00;;;14.43;100.00
80323;BME280;69636;52.372;13.610;2023-08-31T08:03:58;100632.28;;;14.48;99.91
80323;BME280;69636;52.372;13.610;2023-08-31T08:06:25;100634.25;;;14.54;100.00
80323;BME280;69636;52.372;13.610;2023-08-31T08:08:52;100641.69;;;14.58;97.79
80323;BME280;69636;52.372;13.610;2023-08-31T08:11:22;100642.81;;;14.64;97.79
80323;BME280;69636;52.372;13.610;2023-08-31T08:13:49;100645.69;;;14.77;95.79
80323;BME280;69636;52.372;13.610;2023-08-31T08:16:18;100638.03;;;14.89;96.17
80323;BME280;69636;52.372;13.610;2023-08-31T08:18:45;100648.44;;;14.69;94.60
80323;BME280;69636;52.372;13.610;2023-08-31T08:21:12;100652.78;;;14.85;94.81
80323;BME280;69636;52.372;13.610;2023-08-31T08:23:40;100648.00;;;14.80;92.90
80323;BME280;69636;52.372;13.610;2023-08-31T08:26:07;100649.38;;;14.76;93.70
80323;BME280;69636;52.372;13.610;2023-08-31T08:28:34;100655.19;;;14.80;94.25
80323;BME280;69636;52.372;13.610;2023-08-31T08:31:02;100658.69;;;14.80;92.78
80323;BME280;69636;52.372;13.610;2023-08-31T08:33:30;100661.91;;;14.90;93.05
80323;BME280;69636;52.372;13.610;2023-08-31T08:35:58;100658.59;;;15.18;93.06
80323;BME280;69636;52.372;13.610;2023-08-31T08:38:26;100649.09;;;15.30;89.77
80323;BME280;69636;52.372;13.610;2023-08-31T08:40:53;100647.06;;;15.32;90.28
80323;BME280;69636;52.372;13.610;2023-08-31T08:43:25;100652.56;;;15.45;90.83
80323;BME280;69636;52.372;13.610;2023-08-31T08:45:53;100645.94;;;15.56;88.19
80323;BME280;69636;52.372;13.610;2023-08-31T08:48:21;100648.75;;;15.54;87.83
80323;BME280;69636;52.372;13.610;2023-08-31T08:50:51;100648.56;;;15.71;88.29
80323;BME280;69636;52.372;13.610;2023-08-31T08:53:19;100649.97;;;15.88;86.44
80323;BME280;69636;52.372;13.610;2023-08-31T08:55:47;100647.50;;;16.08;84.01
80323;BME280;69636;52.372;13.610;2023-08-31T08:58:14;100643.03;;;16.36;84.25
80323;BME280;69636;52.372;13.610;2023-08-31T09:00:42;100640.66;;;17.17;80.40
80323;BME280;69636;52.372;13.610;2023-08-31T09:03:10;100640.22;;;17.07;77.03
80323;BME280;69636;52.372;13.610;2023-08-31T09:05:37;100637.78;;;17.18;77.53
80323;BME280;69636;52.372;13.610;2023-08-31T09:08:08;100632.22;;;17.20;78.62
80323;BME280;69636;52.372;13.610;2023-08-31T09:10:36;100632.94;;;17.35;77.69
80323;BME280;69636;52.372;13.610;2023-08-31T09:13:08;100642.88;;;17.48;77.26
80323;BME280;69636;52.372;13.610;2023-08-31T09:15:38;100642.22;;;17.87;76.45
80323;BME280;69636;52.372;13.610;2023-08-31T09:18:06;100643.81;;;17.75;74.78
80323;BME280;69636;52.372;13.610;2023-08-31T09:20:43;100637.63;;;17.74;74.54
80323;BME280;69636;52.372;13.610;2023-08-31T09:23:12;100637.22;;;17.77;74.50
80323;BME280;69636;52.372;13.610;2023-08-31T09:25:44;100641.84;;;17.49;75.60
80323;BME280;69636;52.372;13.610;2023-08-31T09:28:12;100631.50;;;17.39;74.54
80323;BME280;69636;52.372;13.610;2023-08-31T09:30:40;100633.72;;;17.29;75.39
80323;BME280;69636;52.372;13.610;2023-08-31T09:33:08;100633.66;;;17.16;75.57
80323;BME280;69636;52.372;13.610;2023-08-31T09:35:39;100641.59;;;16.96;76.39
80323;BME280;69636;52.372;13.610;2023-08-31T09:38:08;100646.34;;;16.66;78.43
80323;BME280;69636;52.372;13.610;2023-08-31T09:40:37;100655.81;;;16.41;78.04
80323;BME280;69636;52.372;13.610;2023-08-31T09:43:05;100648.31;;;16.29;78.11
80323;BME280;69636;52.372;13.610;2023-08-31T09:45:33;100651.50;;;16.18;77.49
80323;BME280;69636;52.372;13.610;2023-08-31T09:48:04;100658.78;;;16.03;78.23
80323;BME280;69636;52.372;13.610;2023-08-31T09:50:33;100654.19;;;15.97;78.71
80323;BME280;69636;52.372;13.610;2023-08-31T09:53:01;100647.56;;;15.93;78.23
80323;BME280;69636;52.372;13.610;2023-08-31T09:55:30;100649.66;;;15.98;78.26
80323;BME280;69636;52.372;13.610;2023-08-31T09:58:00;100641.31;;;16.07;78.52
80323;BME280;69636;52.372;13.610;2023-08-31T10:00:42;100642.22;;;16.63;77.51
80323;BME280;69636;52.372;13.610;2023-08-31T10:03:10;100643.59;;;17.22;75.66
80323;BME280;69636;52.372;13.610;2023-08-31T10:05:39;100638.91;;;17.91;74.48
80323;BME280;69636;52.372;13.610;2023-08-31T10:08:07;100637.69;;;18.20;71.10
80323;BME280;69636;52.372;13.610;2023-08-31T10:10:34;100641.00;;;18.49;66.42
80323;BME280;69636;52.372;13.610;2023-08-31T10:13:04;100640.59;;;18.32;68.60
80323;BME280;69636;52.372;13.610;2023-08-31T10:15:32;100627.19;;;18.65;66.96
80323;BME280;69636;52.372;13.610;2023-08-31T10:18:00;100629.81;;;18.91;67.13
80323;BME280;69636;52.372;13.610;2023-08-31T10:20:28;100630.59;;;18.98;65.43
80323;BME280;69636;52.372;13.610;2023-08-31T10:22:56;100624.81;;;19.02;62.43
80323;BME280;69636;52.372;13.610;2023-08-31T10:25:24;100627.88;;;19.12;60.36
80323;BME280;69636;52.372;13.610;2023-08-31T10:27:51;100626.94;;;19.44;60.61
80323;BME280;69636;52.372;13.610;2023-08-31T10:30:26;100619.97;;;19.75;59.37
80323;BME280;69636;52.372;13.610;2023-08-31T10:33:22;100631.44;;;19.95;58.17
80323;BME280;69636;52.372;13.610;2023-08-31T10:35:52;100632.13;;;19.84;59.73
80323;BME280;69636;52.372;13.610;2023-08-31T10:38:25;100634.38;;;19.49;59.44
80323;BME280;69636;52.372;13.610;2023-08-31T10:41:22;100642.25;;;18.79;61.41
80323;BME280;69636;52.372;13.610;2023-08-31T10:43:51;100639.75;;;18.12;63.18
80323;BME280;69636;52.372;13.610;2023-08-31T10:46:31;100638.44;;;17.75;65.04
80323;BME280;69636;52.372;13.610;2023-08-31T10:48:59;100650.28;;;17.39;71.95
80323;BME280;69636;52.372;13.610;2023-08-31T10:51:29;100652.97;;;16.98;74.68
80323;BME280;69636;52.372;13.610;2023-08-31T10:54:19;100653.72;;;17.26;72.38
80323;BME280;69636;52.372;13.610;2023-08-31T10:56:55;100652.97;;;16.98;74.19
80323;BME280;69636;52.372;13.610;2023-08-31T10:59:41;100650.41;;;16.83;75.79
80323;BME280;69636;52.372;13.610;2023-08-31T11:02:10;100656.44;;;16.64;75.30
80323;BME280;69636;52.372;13.610;2023-08-31T11:04:54;100664.22;;;16.59;76.19
80323;BME280;69636;52.372;13.610;2023-08-31T11:07:24;100659.47;;;16.33;68.83
80323;BME280;69636;52.372;13.610;2023-08-31T11:09:52;100665.44;;;16.07;67.43
80323;BME280;69636;52.372;13.610;2023-08-31T11:12:34;100659.28;;;16.13;69.14
80323;BME280;69636;52.372;13.610;2023-08-31T11:15:02;100669.81;;;15.93;74.47
80323;BME280;69636;52.372;13.610;2023-08-31T11:17:30;100662.72;;;15.86;80.57
80323;BME280;69636;52.372;13.610;2023-08-31T11:19:58;100660.09;;;16.56;82.86
80323;BME280;69636;52.372;13.610;2023-08-31T11:22:26;100660.72;;;17.69;80.15
80323;BME280;69636;52.372;13.610;2023-08-31T11:24:53;100655.88;;;18.78;74.53
80323;BME280;69636;52.372;13.610;2023-08-31T11:27:21;100642.38;;;19.69;70.05
80323;BME280;69636;52.372;13.610;2023-08-31T11:29:49;100636.00;;;19.94;67.31
80323;BME280;69636;52.372;13.610;2023-08-31T11:32:16;100633.13;;;20.21;65.42
80323;BME280;69636;52.372;13.610;2023-08-31T11:34:45;100641.91;;;20.34;67.88
80323;BME280;69636;52.372;13.610;2023-08-31T11:37:13;100632.47;;;20.75;68.96
80323;BME280;69636;52.372;13.610;2023-08-31T11:39:40;100638.88;;;19.99;66.15
80323;BME280;69636;52.372;13.610;2023-08-31T11:42:08;100636.66;;;18.87;69.78
80323;BME280;69636;52.372;13.610;2023-08-31T11:44:35;100641.53;;;17.72;73.01
80323;BME280;69636;52.372;13.610;2023-08-31T11:47:03;100650.75;;;17.08;75.56
80323;BME280;69636;52.372;13.610;2023-08-31T11:49:30;100651.31;;;16.97;79.17
80323;BME280;69636;52.372;13.610;2023-08-31T11:51:59;100659.69;;;16.59;77.67
80323;BME280;69636;52.372;13.610;2023-08-31T11:54:27;100657.19;;;16.30;76.14
80323;BME280;69636;52.372;13.610;2023-08-31T11:56:55;100642.41;;;17.31;76.88
80323;BME280;69636;52.372;13.610;2023-08-31T11:59:22;100630.66;;;18.85;73.19
80323;BME280;69636;52.372;13.610;2023-08-31T12:01:50;100640.06;;;20.04;68.68
80323;BME280;69636;52.372;13.610;2023-08-31T12:04:20;100630.53;;;20.57;66.41
80323;BME280;69636;52.372;13.610;2023-08-31T12:06:49;100629.72;;;21.66;62.22
80323;BME280;69636;52.372;13.610;2023-08-31T12:09:18;100625.88;;;21.44;60.21
80323;BME280;69636;52.372;13.610;2023-08-31T12:11:50;100620.38;;;21.51;60.38
80323;BME280;69636;52.372;13.610;2023-08-31T12:14:21;100619.69;;;20.82;60.31
80323;BME280;69636;52.372;13.610;2023-08-31T12:16:50;100617.91;;;19.70;65.38
80323;BME280;69636;52.372;13.610;2023-08-31T12:19:17;100618.84;;;18.86;68.56
80323;BME280;69636;52.372;13.610;2023-08-31T12:21:46;100618.69;;;18.28;69.43
80323;BME280;69636;52.372;13.610;2023-08-31T12:24:13;100622.19;;;18.75;67.55
80323;BME280;69636;52.372;13.610;2023-08-31T12:26:42;100623.13;;;19.96;64.68
80323;BME280;69636;52.372;13.610;2023-08-31T12:29:09;100613.22;;;21.26;60.42
80323;BME280;69636;52.372;13.610;2023-08-31T12:31:36;100619.41;;;21.45;58.09
80323;BME280;69636;52.372;13.610;2023-08-31T12:34:04;100617.78;;;20.46;60.33
80323;BME280;69636;52.372;13.610;2023-08-31T12:36:32;100625.09;;;19.38;62.22
80323;BME280;69636;52.372;13.610;2023-08-31T12:38:59;100648.03;;;18.37;66.56
80323;BME280;69636;52.372;13.610;2023-08-31T12:41:27;100645.97;;;18.12;67.86